Sign in

Goboko App

Advertising

Info

Aviation weather - KDAB

METAR KDAB 230653Z 08018G25KT 10SM -RA FEW016 BKN037 OVC047 19/18 A2962 RMK AO2 PK WND 07028/0629 SLP029 P0001 T01940178

TAF KDAB 230540Z 2306/2406 05012KT P6SM -RA SCT012 OVC050 TEMPO 2306/2310 3SM SHRA BKN012 OVC020 FM231000 04011KT P6SM VCSH SCT008 BKN015 TEMPO 2310/2314 3SM -SHRA BKN008 FM231400 04013KT P6SM VCSH BKN020 OVC035 TEMPO 2314/2318 3SM SHRA BKN012 FM231900 03015G25KT P6SM SCT015 BKN040

Aviation weather from ADDS. Re-check weather before flight.

-